createdAt,value
2018-09-08T07:01:58.885Z,20.60
2018-09-08T07:04:27.102Z,19.90
2018-09-08T07:06:55.180Z,21.40
2018-09-08T07:09:23.315Z,22.60
2018-09-08T07:11:51.441Z,23.60
2018-09-08T07:14:19.565Z,24.60
2018-09-08T07:48:50.519Z,24.90
2018-09-08T07:51:18.655Z,24.90
2018-09-08T07:53:46.827Z,23.70
2018-09-08T07:56:14.875Z,23.20
2018-09-08T07:58:43.019Z,22.70
2018-09-08T08:01:11.156Z,22.70
2018-09-08T08:03:39.291Z,22.30
2018-09-08T08:06:07.418Z,22.10
2018-09-08T08:08:35.529Z,22.00
2018-09-08T08:11:03.663Z,22.00
2018-09-08T08:13:31.835Z,21.80
2018-09-08T08:15:59.982Z,21.80
2018-09-08T08:18:28.243Z,21.70
2018-09-08T08:20:58.674Z,21.60
2018-09-08T08:23:26.884Z,21.50
2018-09-08T08:25:55.004Z,21.50
2018-09-08T08:31:21.720Z,21.80
2018-09-08T08:33:49.873Z,21.90
2018-09-08T08:36:18.052Z,22.00
2018-09-08T08:38:46.334Z,22.00
2018-09-08T08:41:14.415Z,22.10
2018-09-08T08:49:36.086Z,22.50
2018-09-08T08:52:15.410Z,22.80
2018-09-08T08:54:46.333Z,23.00
2018-09-08T08:57:14.642Z,22.80
2018-09-08T08:59:42.967Z,22.80
2018-09-08T09:02:11.076Z,22.70
2018-09-08T09:04:39.380Z,22.50
2018-09-08T09:07:07.572Z,22.50
2018-09-08T09:09:35.682Z,22.60
2018-09-08T09:12:03.835Z,22.70
2018-09-08T09:14:31.936Z,22.70
2018-09-08T09:17:00.042Z,22.80
2018-09-08T09:19:41.737Z,22.80
2018-09-08T09:22:23.595Z,22.80
2018-09-08T09:25:00.725Z,22.90
2018-09-08T09:27:29.307Z,23.10
2018-09-08T09:29:57.705Z,23.20
2018-09-08T09:32:25.795Z,23.30
2018-09-08T09:34:53.892Z,23.50
2018-09-08T09:37:22.044Z,23.60
2018-09-08T09:39:50.670Z,23.40
2018-09-08T09:42:18.758Z,23.10
2018-09-08T09:44:46.871Z,23.00
2018-09-08T09:47:14.955Z,22.90
2018-09-08T09:49:43.038Z,22.90
2018-09-08T09:52:11.147Z,23.20
2018-09-08T09:54:39.291Z,23.50
2018-09-08T09:57:07.460Z,23.90
2018-09-08T09:59:35.567Z,24.20
2018-09-08T10:03:07.104Z,24.40
2018-09-08T10:05:36.059Z,24.50
2018-09-08T10:08:04.332Z,24.10
2018-09-08T10:10:32.408Z,23.90
2018-09-08T10:15:28.384Z,23.90
2018-09-08T10:17:56.514Z,24.00
2018-09-08T10:20:24.624Z,24.20
2018-09-08T10:22:52.824Z,24.30
2018-09-08T10:25:20.951Z,24.20
2018-09-08T10:27:49.359Z,24.30
2018-09-08T10:32:46.278Z,24.50
2018-09-08T10:35:14.443Z,24.30
2018-09-08T10:37:42.535Z,24.30
2018-09-08T10:40:11.592Z,24.30
2018-09-08T10:42:39.740Z,24.30
2018-09-08T10:45:07.993Z,24.50
2018-09-08T10:47:36.188Z,24.70
2018-09-08T10:50:04.369Z,24.70
2018-09-08T10:52:34.564Z,24.70
2018-09-08T10:55:02.679Z,25.10
2018-09-08T10:57:30.775Z,25.20
2018-09-08T10:59:59.447Z,25.20
2018-09-08T11:04:55.522Z,25.20
2018-09-08T11:12:19.426Z,25.20
2018-09-08T11:14:47.526Z,25.40
2018-09-08T11:17:15.624Z,25.60
2018-09-08T11:19:43.724Z,26.00
2018-09-08T11:22:11.893Z,26.50
2018-09-08T11:24:40.002Z,26.90
2018-09-08T11:27:08.154Z,27.50
2018-09-08T11:29:36.288Z,28.00
2018-09-08T11:32:04.504Z,28.70
2018-09-08T11:34:32.677Z,28.70
2018-09-08T11:37:00.853Z,29.00
2018-09-08T11:39:28.947Z,29.70
2018-09-08T11:41:57.038Z,29.80
2018-09-08T11:44:25.141Z,29.90
2018-09-08T11:46:53.288Z,30.10
2018-09-08T11:49:21.408Z,30.30
2018-09-08T11:51:57.533Z,30.70
2018-09-08T11:54:25.632Z,30.80
2018-09-08T11:56:53.825Z,30.70
2018-09-08T11:59:21.904Z,30.30
2018-09-08T12:01:49.992Z,29.70
2018-09-08T12:04:18.072Z,28.70
2018-09-08T12:06:46.164Z,28.20
2018-09-08T12:09:14.275Z,28.20
2018-09-08T12:11:42.362Z,28.10
2018-09-08T12:14:10.872Z,28.40
2018-09-08T12:16:39.068Z,28.60
2018-09-08T12:19:07.475Z,28.40
2018-09-08T12:21:35.507Z,28.20
2018-09-08T12:26:31.540Z,27.70
2018-09-08T12:31:27.521Z,27.10
2018-09-08T12:33:55.611Z,27.10
2018-09-08T12:36:23.707Z,26.90
2018-09-08T12:38:51.869Z,26.90
2018-09-08T12:43:48.271Z,26.20
2018-09-08T12:46:16.543Z,26.10
2018-09-08T12:48:44.679Z,26.30
2018-09-08T12:51:12.792Z,26.30
2018-09-08T12:53:40.885Z,26.50
2018-09-08T12:56:09.061Z,26.50
2018-09-08T12:58:37.289Z,26.30
2018-09-08T13:01:06.667Z,26.20
2018-09-08T13:06:02.717Z,25.80
2018-09-08T13:08:30.811Z,25.80
2018-09-08T13:10:58.908Z,25.90
2018-09-08T13:13:27.013Z,25.90
2018-09-08T13:15:55.132Z,25.70
2018-09-08T13:18:23.250Z,25.50
2018-09-08T13:20:51.392Z,25.20
2018-09-08T13:23:19.639Z,25.20
2018-09-08T13:25:47.775Z,25.10
2018-09-08T13:28:15.928Z,25.10
2018-09-08T13:30:45.159Z,25.10
2018-09-08T13:33:13.220Z,25.20
2018-09-08T13:35:41.332Z,25.20
2018-09-08T13:38:09.415Z,25.20
2018-09-08T13:40:37.592Z,25.10
2018-09-08T13:43:05.736Z,25.10
2018-09-08T13:45:33.824Z,25.00
2018-09-08T13:48:01.960Z,25.00
2018-09-08T13:50:30.074Z,24.90
2018-09-08T13:52:58.283Z,24.90
2018-09-08T13:55:26.531Z,25.00
2018-09-08T13:57:54.673Z,25.00
2018-09-08T14:00:22.819Z,25.00
2018-09-08T14:02:50.931Z,24.90
2018-09-08T14:10:18.551Z,25.10
2018-09-08T14:12:46.647Z,25.30
2018-09-08T14:15:14.804Z,25.20
2018-09-08T14:17:42.846Z,25.10
2018-09-08T14:20:10.927Z,25.00
2018-09-08T14:22:39.067Z,25.00
2018-09-08T14:25:07.235Z,25.10
2018-09-08T14:27:35.428Z,25.10
2018-09-08T14:30:03.973Z,25.10
2018-09-08T14:32:33.816Z,25.00
2018-09-08T14:35:01.992Z,25.00
2018-09-08T14:37:30.097Z,24.90
2018-09-08T14:39:58.207Z,24.90
2018-09-08T14:42:26.304Z,24.90
2018-09-08T14:44:54.379Z,24.90
2018-09-08T14:47:22.557Z,24.90
2018-09-08T14:49:50.671Z,24.90
2018-09-08T14:52:18.784Z,24.90
2018-09-08T14:54:47.029Z,24.90
2018-09-08T14:57:17.468Z,24.80
2018-09-08T15:05:07.094Z,24.60
2018-09-08T15:07:35.192Z,24.60
2018-09-08T15:10:03.396Z,24.70
2018-09-08T15:12:31.516Z,24.70
2018-09-08T15:14:59.656Z,24.60
2018-09-08T15:17:27.823Z,24.50
2018-09-08T15:19:55.936Z,24.40
2018-09-08T15:22:24.049Z,24.20
2018-09-08T15:24:52.179Z,24.10
2018-09-08T15:27:20.417Z,24.00
2018-09-08T15:29:48.552Z,24.00
2018-09-08T15:32:16.736Z,24.00
2018-09-08T15:34:45.918Z,24.00
2018-09-08T15:37:14.025Z,24.00
2018-09-08T15:39:42.183Z,24.00
2018-09-08T15:42:10.293Z,24.00
2018-09-08T15:44:38.412Z,24.00
2018-09-08T15:47:06.537Z,24.00
2018-09-08T15:49:34.648Z,23.90
2018-09-08T15:52:02.810Z,23.90
2018-09-08T15:54:30.956Z,23.90
2018-09-08T15:56:59.131Z,23.90
2018-09-08T15:59:27.283Z,23.90
2018-09-08T16:01:55.385Z,23.90
2018-09-08T16:04:23.515Z,23.90
2018-09-08T16:06:51.601Z,23.90
2018-09-08T16:09:19.725Z,23.90
2018-09-08T16:11:47.848Z,23.90
2018-09-08T16:14:16.057Z,23.80
2018-09-08T16:16:44.143Z,23.80
2018-09-08T16:19:12.300Z,23.80
2018-09-08T16:21:40.444Z,23.70
2018-09-08T16:24:08.567Z,23.70
2018-09-08T16:26:36.710Z,23.60
2018-09-08T16:31:32.728Z,23.40
2018-09-08T16:34:00.831Z,23.30
2018-09-08T16:36:30.746Z,23.30
2018-09-08T16:38:58.871Z,23.40
2018-09-08T16:41:27.027Z,23.50
2018-09-08T16:43:55.151Z,23.50
2018-09-08T16:46:23.319Z,23.50
2018-09-08T16:48:51.456Z,23.50
2018-09-08T16:51:19.557Z,23.40
2018-09-08T16:53:47.716Z,23.30
2018-09-08T16:56:15.844Z,23.30
2018-09-08T16:58:43.940Z,23.20
2018-09-08T17:01:12.035Z,23.10
2018-09-08T17:03:40.182Z,23.10
2018-09-08T17:06:08.444Z,23.10
2018-09-08T17:08:36.584Z,23.00
2018-09-08T17:11:04.729Z,23.00
2018-09-08T17:13:32.863Z,23.00
2018-09-08T17:16:01.055Z,23.00
2018-09-08T17:18:29.151Z,23.00
2018-09-08T17:20:57.243Z,23.00
2018-09-08T17:23:25.363Z,23.00
2018-09-08T17:25:53.501Z,23.00
2018-09-08T17:28:21.641Z,23.00
2018-09-08T17:30:49.763Z,22.90
2018-09-08T17:33:17.870Z,22.90
2018-09-08T17:35:45.996Z,22.90
2018-09-08T17:38:14.167Z,22.80
2018-09-08T17:40:42.265Z,22.80
2018-09-08T17:43:10.556Z,22.70
2018-09-08T17:45:38.639Z,22.60
2018-09-08T17:48:07.179Z,22.60
2018-09-08T17:50:35.331Z,22.40
2018-09-08T17:53:03.508Z,22.50
2018-09-08T17:55:31.624Z,22.50
2018-09-08T17:57:59.830Z,22.50
2018-09-08T18:00:28.440Z,22.50
2018-09-08T18:02:56.599Z,22.50
2018-09-08T18:12:48.602Z,22.40
2018-09-08T18:15:16.808Z,22.40
2018-09-08T18:25:08.717Z,22.20
2018-09-08T18:27:36.910Z,22.30
2018-09-08T18:30:05.192Z,22.40
2018-09-08T18:32:33.446Z,22.30
2018-09-08T18:35:01.619Z,22.20
2018-09-08T18:39:57.619Z,22.10
2018-09-08T18:42:25.766Z,22.10
2018-09-08T18:47:21.811Z,21.90
2018-09-08T18:49:49.944Z,21.90
2018-09-08T18:52:20.293Z,21.80
2018-09-08T18:54:48.409Z,21.70
2018-09-08T18:57:16.547Z,21.70
2018-09-08T18:59:44.683Z,21.60
2018-09-08T19:02:12.841Z,21.60
2018-09-08T19:04:41.111Z,21.50
2018-09-08T19:07:09.276Z,21.50
2018-09-08T19:09:37.492Z,21.40
2018-09-08T19:12:05.698Z,21.40
2018-09-08T19:15:41.404Z,21.30
2018-09-08T19:18:09.558Z,21.30
2018-09-08T19:20:39.280Z,21.20
2018-09-08T19:23:07.532Z,21.10
2018-09-08T19:25:35.947Z,21.00
2018-09-08T19:28:04.043Z,21.00
2018-09-08T19:30:32.332Z,21.00
2018-09-08T19:33:00.647Z,21.00
2018-09-08T19:35:34.171Z,21.00
2018-09-08T19:38:02.304Z,20.90
2018-09-08T19:40:35.970Z,20.90
2018-09-08T19:43:04.108Z,20.80
2018-09-08T19:45:32.251Z,20.80
2018-09-08T19:48:05.831Z,20.70
2018-09-08T19:50:34.211Z,20.70
2018-09-08T19:53:07.936Z,20.60
2018-09-08T19:55:36.200Z,20.50
2018-09-08T19:58:09.638Z,20.50
2018-09-08T20:00:37.889Z,20.40
2018-09-08T20:03:06.442Z,20.40
2018-09-08T20:05:34.996Z,20.30
2018-09-08T20:08:03.149Z,20.30
2018-09-08T20:10:31.268Z,20.30
2018-09-08T20:13:00.648Z,20.20
2018-09-08T20:15:28.816Z,20.20
2018-09-08T20:17:57.001Z,20.10
2018-09-08T20:20:25.247Z,20.00
2018-09-08T20:22:53.351Z,19.90
2018-09-08T20:25:21.487Z,19.80
2018-09-08T20:27:49.636Z,19.80
2018-09-08T20:30:17.760Z,19.80
2018-09-08T20:32:46.290Z,19.70
2018-09-08T20:35:14.399Z,19.80
2018-09-08T20:37:42.539Z,19.80
2018-09-08T20:40:10.663Z,19.70
2018-09-08T20:42:38.772Z,19.70
2018-09-08T20:45:06.992Z,19.80
2018-09-08T20:47:35.193Z,19.80
2018-09-08T20:50:03.455Z,19.70
2018-09-08T20:52:31.519Z,19.70
2018-09-08T20:54:59.754Z,19.70
2018-09-08T20:57:27.874Z,19.70
2018-09-08T20:59:55.994Z,19.70
2018-09-08T21:02:24.120Z,19.70
2018-09-08T21:04:52.231Z,19.60
2018-09-08T21:07:20.433Z,19.60
2018-09-08T21:09:48.571Z,19.50
2018-09-08T21:12:16.661Z,19.50
2018-09-08T21:14:44.752Z,19.50
2018-09-08T21:17:12.879Z,19.40
2018-09-08T21:19:41.007Z,19.30
2018-09-08T21:22:09.108Z,19.30
